KLKV/LKV METAR and TAF weather

Enter ICAO airport designator
Station Type Date Time Source
KLKV METAR 2021/09/24 03:53 UTC NOAA

KLKV 240353Z AUTO 33009KT 10SM CLR 12/01 A3025 RMK AO2 SLP232 T01170011


Station Type Date Time Source
KLKV Decoded METAR 2021/09/24 03:53 UTC NOAA

Lakeview, Lake County Airport, OR, United States (KLKV) 42-10N 120-24W
Sep 23, 2021 - 11:53 PM EDT / 2021.09.24 0353 UTC
Wind: from the NNW (330 degrees) at 10 MPH (9 KT):0
Visibility: 10 mile(s):0
Sky conditions: clear
Temperature: 53.1 F (11.7 C)
Dew Point: 34.0 F (1.1 C)
Relative Humidity: 48%
Pressure (altimeter): 30.25 in. Hg (1024 hPa)
ob: KLKV 240353Z AUTO 33009KT 10SM CLR 12/01 A3025 RMK AO2 SLP232 T01170011
cycle: 4

Station Type Date Time Source
KLKV TAF UTC NOAA

Error!

Example: see airport list